LHR weather

London Heathrow Airport
London, England, United Kingdom

Public forecast

Using degrees Celsius for public forecast. Weather courtesy of forecast.io.

METAR (pilot weather report)

Retrieved 2018/09/20 08:50 UTC (12 minutes ago):

EGLL 200850Z AUTO 22013KT 9999 -RA BKN018/// //////TCU 19/15 Q1012 NOSIG

TAF (pilot weather forecast)

Retrieved 2018/09/20 06:15 UTC (3 hours ago):

TAF EGLL 200456Z 2006/2112 21015KT 9999 SCT020 PROB40 TEMPO 2006/2008 4500 -RADZ BKN012 BECMG 2008/2011 21018G30KT TEMPO 2022/2102 20026G42KT 6000 RA BKN010 PROB40 TEMPO 2023/2102 4000 +RA BECMG 2101/2104 26020G30KT